Ek-star — LAMT5 — position and weather

sailwx.info

Track history (hours):
 
Tides and Currents Weather Stations Pressure Air Temp Water Temp Dewpoint Dewpoint Depression Visibility Wind Speed Wind Dir Waves Ship Positions

Ek-star

Last reported at 2015-May-04 13:21 UTC. Time now 2015-May-04 16:06 UTC.
Position N 59°38' E 023°20'.

Length 135 m; draft 8.2 m.

Type: Ship (hazmat cat A). MMSI: 257433000.

Date/timePositionNaut miles runAvg speedWind from/ knotsBaromVisibWave heightAir tempDewpointWater temp
2015-May-04 13:21N 59°38' E 023°20'1714.3
2015-May-04 12:09N 59°43' E 023°53'814.2
2015-May-04 11:33N 59°45' E 024°09'1414.1
2015-May-04 10:33N 59°49' E 024°36'5813.8
2015-May-04 06:22N 60°01' E 026°29'9212.7
2015-May-03 23:08N 60°01' E 029°33'610.5
2015-May-03 22:33N 59°59' E 029°45'1111.2
2015-May-03 21:33N 59°54' E 030°05'5 4.2
2015-May-03 20:28N 59°52' E 030°13'0 0.0
2015-May-03 19:31N 59°52' E 030°13'0 0.0
2015-May-03 18:31N 59°52' E 030°13'0 0.0
2015-May-03 17:31N 59°52' E 030°13'0 0.0
2015-May-03 16:32N 59°52' E 030°13'0 0.0
2015-May-03 15:32N 59°52' E 030°13'0 0.0
2015-May-03 14:32N 59°52' E 030°13'0 0.0
2015-May-03 13:32N 59°52' E 030°13'0 0.0
2015-May-03 12:23N 59°52' E 030°13'0 0.0
2015-May-03 11:33N 59°52' E 030°13'0 0.0
2015-May-03 10:31N 59°52' E 030°13'0 0.0
2015-May-03 09:34N 59°52' E 030°13'0 0.1
2015-May-03 08:33N 59°52' E 030°13'0 0.0
2015-May-03 07:34N 59°52' E 030°13'0 0.0
2015-May-03 06:33N 59°52' E 030°13'0 0.0
2015-May-03 05:32N 59°52' E 030°13'0 0.0
2015-May-03 04:33N 59°52' E 030°13'0 0.0
2015-May-03 03:32N 59°52' E 030°13'0 0.0
2015-May-03 02:33N 59°52' E 030°13'0 0.0
2015-May-03 01:33N 59°52' E 030°13'0 0.0
2015-May-03 00:32N 59°52' E 030°13'0 0.0
2015-May-02 23:32N 59°52' E 030°13'0 0.0
2015-May-02 22:33N 59°52' E 030°13'0 0.0
2015-May-02 21:33N 59°52' E 030°13'0 0.0
2015-May-02 20:33N 59°52' E 030°13'0 0.0
2015-May-02 19:33N 59°52' E 030°13'0 0.0
2015-May-02 18:33N 59°52' E 030°13'0 0.0
2015-May-02 17:33N 59°52' E 030°13'0 0.0
2015-May-02 16:33N 59°52' E 030°13'0 0.0
2015-May-02 15:33N 59°52' E 030°13'0 0.0
2015-May-02 14:33N 59°52' E 030°13'0 0.0
2015-May-02 13:33N 59°52' E 030°13'0 0.0
2015-May-02 12:33N 59°52' E 030°13'0 0.0
2015-May-02 11:33N 59°52' E 030°13'0 0.0
2015-May-02 10:33N 59°52' E 030°13'0 0.0
2015-May-02 09:33N 59°52' E 030°13'0 0.0
2015-May-02 08:33N 59°52' E 030°13'0 0.0
2015-May-02 07:33N 59°52' E 030°13'1 1.3
2015-May-02 06:33N 59°53' E 030°11'8 8.4
2015-May-02 05:33N 59°56' E 029°56'1110.8
2015-May-02 04:29N 60°01' E 029°35'6 0.6
2015-May-01 19:04N 60°01' E 029°23'0 0.0
2015-Apr-30 21:31N 60°01' E 029°23'0 0.0
2015-Apr-28 23:29N 60°01' E 029°23'0 0.0
2015-Apr-28 18:32N 60°01' E 029°23'0 0.0
2015-Apr-28 17:32N 60°01' E 029°23'0 0.0
2015-Apr-28 16:20N 60°01' E 029°23'0 0.0
2015-Apr-28 14:20N 60°01' E 029°23'7112.3
2015-Apr-28 08:30N 59°58' E 027°00'1313.9
2015-Apr-28 07:34N 59°59' E 026°34'5814.1
2015-Apr-28 03:24N 59°45' E 024°41'1214.2
2015-Apr-28 02:33N 59°42' E 024°18'1414.2
2015-Apr-28 01:33N 59°38' E 023°51'35713.7
2015-Apr-26 23:28N 55°40' E 015°32'1314.1
2015-Apr-26 22:33N 55°34' E 015°12'1413.8
2015-Apr-26 21:33N 55°27' E 014°51'1313.3
2015-Apr-26 20:33N 55°19' E 014°33'1413.7
2015-Apr-26 19:33N 55°08' E 014°17'1413.8
2015-Apr-26 18:33N 54°60' E 013°58'1513.9
2015-Apr-26 17:29N 54°55' E 013°34'2814.0
2015-Apr-26 15:31N 54°46' E 012°48'1313.4
2015-Apr-26 14:31N 54°39' E 012°28'1313.2
2015-Apr-26 13:33N 54°29' E 012°14'1212.3
2015-Apr-26 12:33N 54°25' E 011°54'1414.0
2015-Apr-26 11:33N 54°29' E 011°32'1413.8
2015-Apr-26 10:33N 54°35' E 011°10'3113.2
2015-Apr-26 08:12N 54°42' E 010°18'6 0.2
2015-Apr-25 08:31N 54°47' E 010°13'1412.3
2015-Apr-25 07:22N 54°41' E 010°35'1012.9
2015-Apr-25 06:33N 54°37' E 010°52'1413.6
2015-Apr-25 05:33N 54°35' E 011°15'1413.6
2015-Apr-25 04:33N 54°29' E 011°36'1313.2
2015-Apr-25 03:33N 54°26' E 011°58'1110.8
2015-Apr-25 02:33N 54°33' E 012°13'1312.9
2015-Apr-25 01:33N 54°43' E 012°27'1413.6
2015-Apr-25 00:33N 54°49' E 012°48'1413.7
2015-Apr-24 23:33N 54°54' E 013°11'1413.9
2015-Apr-24 22:33N 54°58' E 013°33'1413.6
2015-Apr-24 21:33N 55°03' E 013°56'1313.0
2015-Apr-24 20:32N 55°11' E 014°14'1413.7
2015-Apr-24 19:33N 55°21' E 014°29'1313.3
2015-Apr-24 18:33N 55°30' E 014°47'1413.5
2015-Apr-24 17:33N 55°37' E 015°07'1313.3
2015-Apr-24 16:33N 55°44' E 015°28'1413.0
2015-Apr-24 15:29N 55°51' E 015°49'  
Track history (hours):
 
Tides and Currents Weather Stations Pressure Air Temp Water Temp Dewpoint Dewpoint Depression Visibility Wind Speed Wind Dir Waves Ship Positions

Ek-star

Last reported at 2015-May-04 13:21 UTC. Time now 2015-May-04 16:06 UTC.
Position N 59°38' E 023°20'.

Length 135 m; draft 8.2 m.

Type: Ship (hazmat cat A). MMSI: 257433000.

Date/timePositionNaut miles runAvg speedWind from/ knotsBaromVisibWave heightAir tempDewpointWater temp
2015-May-04 13:21N 59°38' E 023°20'1714.3
2015-May-04 12:09N 59°43' E 023°53'814.2
2015-May-04 11:33N 59°45' E 024°09'1414.1
2015-May-04 10:33N 59°49' E 024°36'5813.8
2015-May-04 06:22N 60°01' E 026°29'9212.7
2015-May-03 23:08N 60°01' E 029°33'610.5
2015-May-03 22:33N 59°59' E 029°45'1111.2
2015-May-03 21:33N 59°54' E 030°05'5 4.2
2015-May-03 20:28N 59°52' E 030°13'0 0.0
2015-May-03 19:31N 59°52' E 030°13'0 0.0
2015-May-03 18:31N 59°52' E 030°13'0 0.0
2015-May-03 17:31N 59°52' E 030°13'0 0.0
2015-May-03 16:32N 59°52' E 030°13'0 0.0
2015-May-03 15:32N 59°52' E 030°13'0 0.0
2015-May-03 14:32N 59°52' E 030°13'0 0.0
2015-May-03 13:32N 59°52' E 030°13'0 0.0
2015-May-03 12:23N 59°52' E 030°13'0 0.0
2015-May-03 11:33N 59°52' E 030°13'0 0.0
2015-May-03 10:31N 59°52' E 030°13'0 0.0
2015-May-03 09:34N 59°52' E 030°13'0 0.1
2015-May-03 08:33N 59°52' E 030°13'0 0.0
2015-May-03 07:34N 59°52' E 030°13'0 0.0
2015-May-03 06:33N 59°52' E 030°13'0 0.0
2015-May-03 05:32N 59°52' E 030°13'0 0.0
2015-May-03 04:33N 59°52' E 030°13'0 0.0
2015-May-03 03:32N 59°52' E 030°13'0 0.0
2015-May-03 02:33N 59°52' E 030°13'0 0.0
2015-May-03 01:33N 59°52' E 030°13'0 0.0
2015-May-03 00:32N 59°52' E 030°13'0 0.0
2015-May-02 23:32N 59°52' E 030°13'0 0.0
2015-May-02 22:33N 59°52' E 030°13'0 0.0
2015-May-02 21:33N 59°52' E 030°13'0 0.0
2015-May-02 20:33N 59°52' E 030°13'0 0.0
2015-May-02 19:33N 59°52' E 030°13'0 0.0
2015-May-02 18:33N 59°52' E 030°13'0 0.0
2015-May-02 17:33N 59°52' E 030°13'0 0.0
2015-May-02 16:33N 59°52' E 030°13'0 0.0
2015-May-02 15:33N 59°52' E 030°13'0 0.0
2015-May-02 14:33N 59°52' E 030°13'0 0.0
2015-May-02 13:33N 59°52' E 030°13'0 0.0
2015-May-02 12:33N 59°52' E 030°13'0 0.0
2015-May-02 11:33N 59°52' E 030°13'0 0.0
2015-May-02 10:33N 59°52' E 030°13'0 0.0
2015-May-02 09:33N 59°52' E 030°13'0 0.0
2015-May-02 08:33N 59°52' E 030°13'0 0.0
2015-May-02 07:33N 59°52' E 030°13'1 1.3
2015-May-02 06:33N 59°53' E 030°11'8 8.4
2015-May-02 05:33N 59°56' E 029°56'1110.8
2015-May-02 04:29N 60°01' E 029°35'6 0.6
2015-May-01 19:04N 60°01' E 029°23'0 0.0
2015-Apr-30 21:31N 60°01' E 029°23'0 0.0
2015-Apr-28 23:29N 60°01' E 029°23'0 0.0
2015-Apr-28 18:32N 60°01' E 029°23'0 0.0
2015-Apr-28 17:32N 60°01' E 029°23'0 0.0
2015-Apr-28 16:20N 60°01' E 029°23'0 0.0
2015-Apr-28 14:20N 60°01' E 029°23'7112.3
2015-Apr-28 08:30N 59°58' E 027°00'1313.9
2015-Apr-28 07:34N 59°59' E 026°34'5814.1
2015-Apr-28 03:24N 59°45' E 024°41'1214.2
2015-Apr-28 02:33N 59°42' E 024°18'1414.2
2015-Apr-28 01:33N 59°38' E 023°51'35713.7
2015-Apr-26 23:28N 55°40' E 015°32'1314.1
2015-Apr-26 22:33N 55°34' E 015°12'1413.8
2015-Apr-26 21:33N 55°27' E 014°51'1313.3
2015-Apr-26 20:33N 55°19' E 014°33'1413.7
2015-Apr-26 19:33N 55°08' E 014°17'1413.8
2015-Apr-26 18:33N 54°60' E 013°58'1513.9
2015-Apr-26 17:29N 54°55' E 013°34'2814.0
2015-Apr-26 15:31N 54°46' E 012°48'1313.4
2015-Apr-26 14:31N 54°39' E 012°28'1313.2
2015-Apr-26 13:33N 54°29' E 012°14'1212.3
2015-Apr-26 12:33N 54°25' E 011°54'1414.0
2015-Apr-26 11:33N 54°29' E 011°32'1413.8
2015-Apr-26 10:33N 54°35' E 011°10'3113.2
2015-Apr-26 08:12N 54°42' E 010°18'6 0.2
2015-Apr-25 08:31N 54°47' E 010°13'1412.3
2015-Apr-25 07:22N 54°41' E 010°35'1012.9
2015-Apr-25 06:33N 54°37' E 010°52'1413.6
2015-Apr-25 05:33N 54°35' E 011°15'1413.6
2015-Apr-25 04:33N 54°29' E 011°36'1313.2
2015-Apr-25 03:33N 54°26' E 011°58'1110.8
2015-Apr-25 02:33N 54°33' E 012°13'1312.9
2015-Apr-25 01:33N 54°43' E 012°27'1413.6
2015-Apr-25 00:33N 54°49' E 012°48'1413.7
2015-Apr-24 23:33N 54°54' E 013°11'1413.9
2015-Apr-24 22:33N 54°58' E 013°33'1413.6
2015-Apr-24 21:33N 55°03' E 013°56'1313.0
2015-Apr-24 20:32N 55°11' E 014°14'1413.7
2015-Apr-24 19:33N 55°21' E 014°29'1313.3
2015-Apr-24 18:33N 55°30' E 014°47'1413.5
2015-Apr-24 17:33N 55°37' E 015°07'1313.3
2015-Apr-24 16:33N 55°44' E 015°28'1413.0
2015-Apr-24 15:29N 55°51' E 015°49'  

Dump ship's entire track history